Time;durP1;ratioP1;P1;durP2;ratioP2;P2;SDS_P1;SDS_P2;PMS_P1;PMS_P2;Temp;Humidity;BMP_temperature;BMP_pressure;BME280_temperature;BME280_humidity;BME280_pressure;Samples;Min_cycle;Max_cycle;Signal;HPM_P1;HPM_P2
2021/07/04 00:01:41;;;;;;;3.10;1.15;;;18.90;77.60;;;;;;5065871;28;20190;-71
2021/07/04 00:04:07;;;;;;;1.30;1.30;;;18.90;77.80;;;;;;5067450;28;20182;-71
2021/07/04 00:06:32;;;;;;;1.15;1.15;;;18.90;77.90;;;;;;5065200;28;20184;-71
2021/07/04 00:08:58;;;;;;;1.05;1.05;;;18.90;78.20;;;;;;5065136;28;20258;-71
2021/07/04 00:11:24;;;;;;;1.20;1.20;;;18.90;77.70;;;;;;5067223;28;20211;-71
2021/07/04 00:13:49;;;;;;;1.10;1.10;;;18.90;78.30;;;;;;5066466;28;20765;-71
2021/07/04 00:16:16;;;;;;;1.05;1.05;;;18.80;78.30;;;;;;5066684;28;20660;-71
2021/07/04 00:18:42;;;;;;;1.20;1.20;;;18.80;77.80;;;;;;5063651;28;20270;-71
2021/07/04 00:21:09;;;;;;;1.10;1.10;;;18.80;78.20;;;;;;5067486;28;20625;-71
2021/07/04 00:23:35;;;;;;;1.30;1.30;;;18.80;78.40;;;;;;5065800;28;20778;-71
2021/07/04 00:26:03;;;;;;;1.10;1.10;;;18.70;78.00;;;;;;5061546;28;20191;-71
2021/07/04 00:28:29;;;;;;;1.10;1.10;;;18.70;79.20;;;;;;5065006;28;20179;-71
2021/07/04 00:30:55;;;;;;;1.17;1.17;;;18.70;78.40;;;;;;5066922;28;20226;-71
2021/07/04 00:33:20;;;;;;;1.40;1.40;;;18.70;78.60;;;;;;5066450;28;20190;-71
2021/07/04 00:35:46;;;;;;;2.05;1.30;;;18.70;78.80;;;;;;5066744;28;20191;-72
2021/07/04 00:38:12;;;;;;;1.30;1.30;;;18.70;78.30;;;;;;5065798;28;20579;-72
2021/07/04 00:40:40;;;;;;;1.45;1.45;;;18.70;78.30;;;;;;5066921;28;20190;-71
2021/07/04 00:43:06;;;;;;;1.15;1.15;;;18.70;78.40;;;;;;5066240;28;20657;-72
2021/07/04 00:45:32;;;;;;;3.13;1.55;;;18.70;78.40;;;;;;5067066;28;20183;-71
2021/07/04 00:47:58;;;;;;;0.95;0.95;;;18.70;78.60;;;;;;5066504;28;20183;-71
2021/07/04 00:50:27;;;;;;;1.20;1.20;;;18.70;78.70;;;;;;5067066;28;20217;-72
2021/07/04 00:52:54;;;;;;;1.33;1.33;;;18.70;78.80;;;;;;5067114;28;20844;-71
2021/07/04 00:55:20;;;;;;;1.20;1.20;;;18.70;78.90;;;;;;5064292;28;20179;-71
2021/07/04 00:57:46;;;;;;;1.20;1.20;;;18.70;78.40;;;;;;5067423;28;20708;-71
2021/07/04 01:00:18;;;;;;;1.00;1.00;;;18.70;78.40;;;;;;5065187;28;20554;-71
2021/07/04 01:02:44;;;;;;;2.58;1.27;;;18.70;78.10;;;;;;5064869;28;20290;-72
2021/07/04 01:05:13;;;;;;;1.27;1.27;;;18.70;78.30;;;;;;5066039;28;20183;-71
2021/07/04 01:07:39;;;;;;;1.15;1.15;;;18.70;78.10;;;;;;5066561;28;20235;-72
2021/07/04 01:10:07;;;;;;;1.45;1.45;;;18.60;79.10;;;;;;5066808;28;20861;-71
2021/07/04 01:12:34;;;;;;;1.08;1.08;;;18.60;78.70;;;;;;5064813;28;20235;-72
2021/07/04 01:15:00;;;;;;;1.27;1.27;;;18.60;79.00;;;;;;5065617;28;20210;-72
2021/07/04 01:17:26;;;;;;;1.30;1.30;;;18.60;79.10;;;;;;5065796;28;20183;-71
2021/07/04 01:19:52;;;;;;;1.27;1.17;;;18.50;79.00;;;;;;5058909;28;20244;-72
2021/07/04 01:22:19;;;;;;;1.63;1.63;;;18.60;79.30;;;;;;5067164;28;20186;-72
2021/07/04 01:24:45;;;;;;;1.55;1.13;;;18.50;79.60;;;;;;5066951;28;20182;-71
2021/07/04 01:27:11;;;;;;;1.25;1.25;;;18.50;79.70;;;;;;5065946;28;20183;-71
2021/07/04 01:29:37;;;;;;;1.45;1.45;;;18.40;80.00;;;;;;5057810;28;20302;-71
2021/07/04 01:32:03;;;;;;;1.50;1.40;;;18.40;79.70;;;;;;5069480;28;20774;-71
2021/07/04 01:34:28;;;;;;;1.30;1.30;;;18.40;80.00;;;;;;5067460;28;20568;-72
2021/07/04 01:36:54;;;;;;;1.20;1.20;;;18.40;80.00;;;;;;5070435;28;20187;-72
2021/07/04 01:39:20;;;;;;;1.20;1.20;;;18.30;80.00;;;;;;5067673;28;20186;-72
2021/07/04 01:41:46;;;;;;;1.38;1.38;;;18.30;79.90;;;;;;5071319;28;20238;-72
2021/07/04 01:44:11;;;;;;;1.33;1.33;;;18.30;80.10;;;;;;5069458;28;20265;-72
2021/07/04 01:46:37;;;;;;;1.42;1.42;;;18.30;80.60;;;;;;5069026;28;20249;-72
2021/07/04 01:49:03;;;;;;;1.20;1.20;;;18.30;80.20;;;;;;5068660;28;20206;-72
2021/07/04 01:51:29;;;;;;;1.23;1.23;;;18.30;80.20;;;;;;5069560;28;20215;-72
2021/07/04 01:53:54;;;;;;;1.00;1.00;;;18.30;80.40;;;;;;5070081;28;20248;-71
2021/07/04 01:56:20;;;;;;;1.38;1.38;;;18.20;80.20;;;;;;5067342;28;20186;-72
2021/07/04 01:58:46;;;;;;;1.25;1.25;;;18.20;80.20;;;;;;5070871;28;20171;-72
2021/07/04 02:01:12;;;;;;;1.45;1.30;;;18.20;80.10;;;;;;5067481;28;20228;-72
2021/07/04 02:03:38;;;;;;;1.60;1.50;;;18.20;81.00;;;;;;5067729;28;20179;-72
2021/07/04 02:06:05;;;;;;;1.10;1.10;;;18.20;80.70;;;;;;5069357;28;20189;-72
2021/07/04 02:08:30;;;;;;;1.95;1.85;;;18.20;80.50;;;;;;5067533;28;20233;-72
2021/07/04 02:10:56;;;;;;;1.70;1.60;;;18.20;80.90;;;;;;5068848;28;20703;-71
2021/07/04 02:13:22;;;;;;;1.25;1.20;;;18.20;80.90;;;;;;5069887;28;20731;-72
2021/07/04 02:15:47;;;;;;;1.55;1.55;;;18.20;80.50;;;;;;5068555;28;20205;-72
2021/07/04 02:18:17;;;;;;;1.30;1.30;;;18.20;80.50;;;;;;5068558;28;20182;-72
2021/07/04 02:20:48;;;;;;;1.50;1.50;;;18.20;80.50;;;;;;5069838;28;20194;-72
2021/07/04 02:23:35;;;;;;;1.50;1.50;;;18.20;80.30;;;;;;5069164;28;20185;-71
2021/07/04 02:26:01;;;;;;;2.30;1.33;;;18.20;80.60;;;;;;5065124;28;20212;-71
2021/07/04 02:28:28;;;;;;;1.55;1.55;;;18.20;79.90;;;;;;5063526;28;20260;-72
2021/07/04 02:30:56;;;;;;;1.38;1.38;;;18.20;79.70;;;;;;5068726;28;20601;-72
2021/07/04 02:33:23;;;;;;;1.70;1.70;;;18.20;80.10;;;;;;5069444;28;20740;-72
2021/07/04 02:35:52;;;;;;;1.85;1.42;;;18.20;80.10;;;;;;5070082;28;20260;-72
2021/07/04 02:38:19;;;;;;;1.40;1.40;;;18.20;80.50;;;;;;5066205;28;20313;-71
2021/07/04 02:40:45;;;;;;;1.73;1.73;;;18.20;80.50;;;;;;5068695;28;20714;-71
2021/07/04 02:43:13;;;;;;;1.42;1.42;;;18.30;79.50;;;;;;5067908;28;20298;-71
2021/07/04 02:45:40;;;;;;;1.80;1.80;;;18.20;80.00;;;;;;5068705;28;20198;-71
2021/07/04 02:48:07;;;;;;;1.85;1.75;;;18.20;79.80;;;;;;5069134;28;20194;-71
2021/07/04 02:50:33;;;;;;;1.42;1.42;;;18.20;79.50;;;;;;5084670;28;20219;-72
2021/07/04 02:52:59;;;;;;;1.48;1.20;;;18.20;79.80;;;;;;5066331;28;20187;-71
2021/07/04 02:55:25;;;;;;;1.60;1.60;;;18.20;80.00;;;;;;5068209;28;20736;-71
2021/07/04 02:57:51;;;;;;;1.65;1.65;;;18.20;80.30;;;;;;5067617;28;20191;-71
2021/07/04 03:00:20;;;;;;;1.70;1.70;;;18.20;80.30;;;;;;5067973;28;20813;-71
2021/07/04 03:02:46;;;;;;;1.50;1.48;;;18.10;80.00;;;;;;5067233;28;20174;-71
2021/07/04 03:05:12;;;;;;;1.33;1.33;;;18.10;79.90;;;;;;5069544;28;20186;-71
2021/07/04 03:07:38;;;;;;;1.90;1.80;;;18.20;80.40;;;;;;5068976;28;20552;-71
2021/07/04 03:10:08;;;;;;;1.50;1.40;;;18.20;80.20;;;;;;5069103;28;20198;-72
2021/07/04 03:12:34;;;;;;;1.67;1.58;;;18.10;80.30;;;;;;5066698;28;20193;-71
2021/07/04 03:15:00;;;;;;;1.67;1.67;;;18.20;79.80;;;;;;5066528;28;20280;-71
2021/07/04 03:17:26;;;;;;;4.07;1.90;;;18.20;79.90;;;;;;5068512;28;20179;-71
2021/07/04 03:19:52;;;;;;;1.70;1.65;;;18.20;80.00;;;;;;5063906;28;20183;-71
2021/07/04 03:22:18;;;;;;;1.40;1.40;;;18.20;79.70;;;;;;5060613;28;20175;-71
2021/07/04 03:24:43;;;;;;;1.70;1.70;;;18.20;79.90;;;;;;5066581;28;20762;-72
2021/07/04 03:27:09;;;;;;;1.67;1.65;;;18.20;80.10;;;;;;5064766;28;20283;-72
2021/07/04 03:29:36;;;;;;;1.83;1.75;;;18.20;80.10;;;;;;5062997;28;20265;-71
2021/07/04 03:32:03;;;;;;;2.10;1.90;;;18.20;80.20;;;;;;5066928;28;20210;-72
2021/07/04 03:34:30;;;;;;;2.28;2.17;;;18.20;80.10;;;;;;5062863;28;20191;-71
2021/07/04 03:36:56;;;;;;;2.38;1.48;;;18.20;80.40;;;;;;5057230;28;20184;-72
2021/07/04 03:39:21;;;;;;;1.48;1.48;;;18.20;80.90;;;;;;5068282;28;20608;-72
2021/07/04 03:41:47;;;;;;;1.73;1.65;;;18.10;80.80;;;;;;5067458;28;20201;-71
2021/07/04 03:44:13;;;;;;;1.40;1.40;;;18.10;80.80;;;;;;5068068;28;20553;-72
2021/07/04 03:46:39;;;;;;;1.60;1.60;;;18.10;80.70;;;;;;5067885;28;20583;-72
2021/07/04 03:49:06;;;;;;;1.52;1.27;;;18.10;81.00;;;;;;5067810;28;20186;-72
2021/07/04 03:51:32;;;;;;;1.98;1.83;;;18.10;80.70;;;;;;5066146;28;20214;-72
2021/07/04 03:53:58;;;;;;;3.25;1.67;;;18.10;80.60;;;;;;5067110;28;20190;-72
2021/07/04 03:56:24;;;;;;;1.60;1.60;;;18.10;80.70;;;;;;5067493;28;20179;-72
2021/07/04 03:58:49;;;;;;;1.33;1.30;;;18.10;80.70;;;;;;5066451;28;20183;-72
2021/07/04 04:01:19;;;;;;;2.00;1.85;;;18.10;80.90;;;;;;5066755;28;20205;-72
2021/07/04 04:03:47;;;;;;;2.00;1.90;;;18.10;80.60;;;;;;5068733;28;20174;-72
2021/07/04 04:06:13;;;;;;;2.25;2.10;;;18.10;80.60;;;;;;5066854;28;20206;-72
2021/07/04 04:08:40;;;;;;;2.13;2.03;;;18.20;80.70;;;;;;5066738;28;20179;-72
2021/07/04 04:11:06;;;;;;;1.67;1.67;;;18.10;80.80;;;;;;5066261;28;20199;-72
2021/07/04 04:13:32;;;;;;;1.95;1.85;;;18.20;81.10;;;;;;5070447;28;20172;-72
2021/07/04 04:15:57;;;;;;;3.20;2.00;;;18.20;80.80;;;;;;5067725;28;20199;-72
2021/07/04 04:18:23;;;;;;;2.50;2.35;;;18.20;80.90;;;;;;5063852;28;20211;-72
2021/07/04 04:20:49;;;;;;;7.57;2.30;;;18.20;80.80;;;;;;5056068;28;20187;-72
2021/07/04 04:23:14;;;;;;;1.80;1.80;;;18.30;80.80;;;;;;5066337;28;20258;-72
2021/07/04 04:25:40;;;;;;;2.33;2.17;;;18.30;80.60;;;;;;5065406;28;20323;-72
2021/07/04 04:28:06;;;;;;;1.88;1.88;;;18.30;80.70;;;;;;5062725;28;20240;-72
2021/07/04 04:30:32;;;;;;;2.03;1.92;;;18.30;80.80;;;;;;5064815;28;20264;-72
2021/07/04 04:32:58;;;;;;;3.63;2.00;;;18.30;80.80;;;;;;5067121;28;20187;-72
2021/07/04 04:35:24;;;;;;;2.50;2.40;;;18.40;80.80;;;;;;5067568;28;20731;-72
2021/07/04 04:37:50;;;;;;;2.08;2.05;;;18.40;80.70;;;;;;5060086;28;20278;-71
2021/07/04 04:40:16;;;;;;;2.40;2.30;;;18.50;80.60;;;;;;5063876;28;20229;-72
2021/07/04 04:42:42;;;;;;;2.10;1.60;;;18.50;81.10;;;;;;5059028;28;20182;-71
2021/07/04 04:45:08;;;;;;;2.10;1.95;;;18.50;80.60;;;;;;5066256;28;20816;-70
2021/07/04 04:47:34;;;;;;;2.25;2.22;;;18.60;80.70;;;;;;5065724;28;20175;-70
2021/07/04 04:50:00;;;;;;;2.05;1.95;;;18.60;81.10;;;;;;5066493;28;20182;-71
2021/07/04 04:52:26;;;;;;;2.45;2.00;;;18.60;80.80;;;;;;5067033;28;20210;-71
2021/07/04 04:54:51;;;;;;;2.35;2.20;;;18.70;80.60;;;;;;5066688;28;20182;-72
2021/07/04 04:57:17;;;;;;;2.40;2.30;;;18.80;80.80;;;;;;5067167;28;20660;-72
2021/07/04 04:59:43;;;;;;;2.30;2.25;;;18.80;80.60;;;;;;5067168;28;20183;-72
2021/07/04 05:02:09;;;;;;;4.82;1.98;;;18.90;80.60;;;;;;5069055;28;20205;-73
2021/07/04 05:04:35;;;;;;;2.53;2.50;;;19.00;79.90;;;;;;5065446;28;20171;-72
2021/07/04 05:07:01;;;;;;;1.90;1.90;;;19.00;80.30;;;;;;5066726;28;20983;-72
2021/07/04 05:09:26;;;;;;;2.03;1.75;;;19.10;80.10;;;;;;5062751;28;20167;-73
2021/07/04 05:11:52;;;;;;;1.83;1.75;;;19.20;80.20;;;;;;5069578;28;20214;-72
2021/07/04 05:14:19;;;;;;;1.80;1.80;;;19.20;79.30;;;;;;5066816;28;20191;-72
2021/07/04 05:16:45;;;;;;;2.50;2.40;;;19.30;79.10;;;;;;5066852;28;20679;-72
2021/07/04 05:19:12;;;;;;;2.13;1.98;;;19.40;79.00;;;;;;5064638;28;20272;-72
2021/07/04 05:21:39;;;;;;;2.22;2.13;;;19.40;78.80;;;;;;5063900;28;20191;-72
2021/07/04 05:24:08;;;;;;;1.85;1.85;;;19.40;78.90;;;;;;5063464;28;20341;-72
2021/07/04 05:26:34;;;;;;;1.67;1.67;;;19.50;78.80;;;;;;5066393;28;20573;-72
2021/07/04 05:29:00;;;;;;;2.45;2.35;;;19.60;78.90;;;;;;5062566;28;20183;-72
2021/07/04 05:31:27;;;;;;;2.10;2.03;;;19.60;78.70;;;;;;5058011;28;20258;-72
2021/07/04 05:33:53;;;;;;;2.50;2.40;;;19.60;78.10;;;;;;5064957;28;20259;-72
2021/07/04 05:36:19;;;;;;;2.38;2.28;;;19.70;78.00;;;;;;5063318;28;20195;-73
2021/07/04 05:38:45;;;;;;;2.55;2.45;;;19.70;77.40;;;;;;5064560;28;20190;-72
2021/07/04 05:41:12;;;;;;;1.83;1.83;;;19.80;77.70;;;;;;5065402;28;20187;-72
2021/07/04 05:43:44;;;;;;;3.60;2.08;;;19.90;78.20;;;;;;5066719;28;20252;-72
2021/07/04 05:46:10;;;;;;;2.20;2.00;;;19.90;77.30;;;;;;5060991;28;20266;-71
2021/07/04 05:48:38;;;;;;;2.30;2.20;;;20.00;77.30;;;;;;5053091;28;20241;-72
2021/07/04 05:51:04;;;;;;;3.80;2.22;;;20.00;77.20;;;;;;5066266;28;20210;-71
2021/07/04 05:53:30;;;;;;;2.50;2.40;;;20.00;77.60;;;;;;5065618;28;20183;-72
2021/07/04 05:55:56;;;;;;;2.50;2.30;;;20.00;77.50;;;;;;5063242;28;20186;-72
2021/07/04 05:58:21;;;;;;;2.17;2.08;;;20.00;77.10;;;;;;5066584;28;20182;-71
2021/07/04 06:00:47;;;;;;;2.60;2.50;;;20.10;77.30;;;;;;5066134;28;20194;-71
2021/07/04 06:03:14;;;;;;;2.25;2.15;;;20.10;77.60;;;;;;5066410;28;20205;-72
2021/07/04 06:05:40;;;;;;;2.20;2.20;;;20.20;77.30;;;;;;5067494;28;20191;-71
2021/07/04 06:08:05;;;;;;;2.25;2.15;;;20.20;77.30;;;;;;5066412;28;20190;-71
2021/07/04 06:10:31;;;;;;;2.60;2.50;;;20.20;77.30;;;;;;5061115;28;20226;-72
2021/07/04 06:12:57;;;;;;;2.33;2.10;;;20.30;76.80;;;;;;5068060;28;20208;-72
2021/07/04 06:15:23;;;;;;;2.33;2.30;;;20.40;76.70;;;;;;5064662;28;20195;-72
2021/07/04 06:17:49;;;;;;;2.80;2.70;;;20.40;76.80;;;;;;5068833;28;20205;-71
2021/07/04 06:20:16;;;;;;;2.17;2.10;;;20.40;76.50;;;;;;5061826;28;20179;-71
2021/07/04 06:22:42;;;;;;;2.40;2.35;;;20.40;76.50;;;;;;5065834;28;20567;-72
2021/07/04 06:25:10;;;;;;;2.42;2.28;;;20.40;76.70;;;;;;5064540;28;20190;-72
2021/07/04 06:27:36;;;;;;;7.85;2.60;;;20.50;76.70;;;;;;5064940;28;20187;-72
2021/07/04 06:30:08;;;;;;;2.58;2.42;;;20.50;76.30;;;;;;5066738;28;20178;-72
2021/07/04 06:32:34;;;;;;;2.67;2.47;;;20.50;76.50;;;;;;5065312;28;20270;-72
2021/07/04 06:35:00;;;;;;;2.67;2.55;;;20.60;76.30;;;;;;5062541;28;20211;-72
2021/07/04 06:37:26;;;;;;;2.78;2.58;;;20.60;76.40;;;;;;5069773;28;20183;-72
2021/07/04 06:39:51;;;;;;;2.67;2.58;;;20.70;76.10;;;;;;5068703;28;20236;-72
2021/07/04 06:42:17;;;;;;;2.70;2.50;;;20.80;76.20;;;;;;5067618;28;20195;-70
2021/07/04 06:44:45;;;;;;;2.85;2.60;;;20.80;76.10;;;;;;5069632;28;20178;-70
2021/07/04 06:47:11;;;;;;;3.83;2.90;;;20.80;75.60;;;;;;5069173;28;20691;-72
2021/07/04 06:49:37;;;;;;;2.45;2.25;;;20.80;76.00;;;;;;5066751;28;20261;-70
2021/07/04 06:52:03;;;;;;;2.25;2.22;;;20.80;75.60;;;;;;5065786;28;20696;-71
2021/07/04 06:54:28;;;;;;;2.88;2.72;;;20.90;75.60;;;;;;5066262;28;20179;-71
2021/07/04 06:56:54;;;;;;;3.05;2.95;;;20.90;75.40;;;;;;5066036;28;20194;-72
2021/07/04 06:59:20;;;;;;;2.85;2.65;;;20.90;75.10;;;;;;5064162;28;20594;-72
2021/07/04 07:01:45;;;;;;;2.63;2.50;;;21.00;75.30;;;;;;5065729;28;20195;-71
2021/07/04 07:04:13;;;;;;;2.78;2.58;;;21.00;74.90;;;;;;5067168;28;20210;-71
2021/07/04 07:06:39;;;;;;;2.47;2.38;;;21.00;75.10;;;;;;5064871;28;20183;-71
2021/07/04 07:09:05;;;;;;;2.60;2.53;;;21.00;74.90;;;;;;5064817;28;20625;-70
2021/07/04 07:11:31;;;;;;;2.67;2.58;;;21.10;74.70;;;;;;5063946;28;20215;-70
2021/07/04 07:13:56;;;;;;;2.35;2.25;;;21.20;74.30;;;;;;5061984;28;20206;-71
2021/07/04 07:16:22;;;;;;;2.47;2.38;;;21.30;74.50;;;;;;5066894;28;20187;-71
2021/07/04 07:18:48;;;;;;;2.95;2.35;;;21.30;74.70;;;;;;5067298;28;20298;-71
2021/07/04 07:21:13;;;;;;;2.50;2.40;;;21.40;74.40;;;;;;5066293;28;20191;-70
2021/07/04 07:23:39;;;;;;;2.60;2.50;;;21.40;74.60;;;;;;5064490;28;20187;-70
2021/07/04 07:26:05;;;;;;;2.88;2.78;;;21.50;74.50;;;;;;5066426;28;20252;-69
2021/07/04 07:28:31;;;;;;;2.60;2.40;;;21.60;74.50;;;;;;5063908;28;20183;-70
2021/07/04 07:30:56;;;;;;;2.28;2.28;;;21.60;73.60;;;;;;5063666;28;20581;-70
2021/07/04 07:33:22;;;;;;;2.72;2.63;;;21.60;74.20;;;;;;5060420;28;20282;-70
2021/07/04 07:35:50;;;;;;;2.67;2.58;;;21.70;73.70;;;;;;5061747;28;20187;-69
2021/07/04 07:38:17;;;;;;;2.58;2.35;;;21.80;73.40;;;;;;5064864;28;20207;-70
2021/07/04 07:40:42;;;;;;;2.65;2.45;;;21.90;73.50;;;;;;5065011;28;20690;-69
2021/07/04 07:43:08;;;;;;;10.80;2.50;;;22.00;72.90;;;;;;5062826;28;20187;-71
2021/07/04 07:45:34;;;;;;;2.83;2.55;;;22.20;73.00;;;;;;5064751;28;20203;-70
2021/07/04 07:48:00;;;;;;;2.75;2.65;;;22.20;72.90;;;;;;5066203;28;20179;-71
2021/07/04 07:50:26;;;;;;;4.30;2.65;;;22.20;72.30;;;;;;5061917;28;20224;-69
2021/07/04 07:52:52;;;;;;;2.50;2.40;;;22.20;72.50;;;;;;5067402;28;20627;-69
2021/07/04 07:55:18;;;;;;;2.45;2.33;;;22.30;71.80;;;;;;5062961;28;20261;-72
2021/07/04 07:57:44;;;;;;;2.00;1.98;;;22.30;71.60;;;;;;5063980;28;20218;-70
2021/07/04 08:00:12;;;;;;;4.10;2.35;;;22.50;72.00;;;;;;5063823;28;20687;-70
2021/07/04 08:02:38;;;;;;;2.30;2.25;;;22.60;71.70;;;;;;5061964;28;20749;-69
2021/07/04 08:05:05;;;;;;;2.30;2.20;;;22.80;71.00;;;;;;5063888;28;20187;-69
2021/07/04 08:07:31;;;;;;;2.63;2.05;;;22.90;70.20;;;;;;5060923;28;20181;-72
2021/07/04 08:09:56;;;;;;;1.90;1.90;;;23.00;69.80;;;;;;5059434;28;20258;-70
2021/07/04 08:12:22;;;;;;;2.40;1.88;;;23.10;70.10;;;;;;5064585;28;20672;-71
2021/07/04 08:14:48;;;;;;;2.55;2.47;;;23.30;69.10;;;;;;5065262;28;20209;-71
2021/07/04 08:17:13;;;;;;;2.13;2.13;;;23.30;68.90;;;;;;5065640;28;20182;-71
2021/07/04 08:19:39;;;;;;;2.10;2.10;;;23.40;68.80;;;;;;5067738;28;20174;-72
2021/07/04 08:22:05;;;;;;;2.17;2.13;;;23.40;68.10;;;;;;5067289;28;20195;-71
2021/07/04 08:24:31;;;;;;;2.08;1.98;;;23.50;67.90;;;;;;5058190;28;20250;-71
2021/07/04 08:26:57;;;;;;;2.88;2.05;;;23.60;67.50;;;;;;5065594;28;20189;-72
2021/07/04 08:29:22;;;;;;;2.17;2.15;;;23.70;67.50;;;;;;5066730;28;20183;-71
2021/07/04 08:31:49;;;;;;;1.88;1.77;;;23.90;67.10;;;;;;5065675;28;20301;-71
2021/07/04 08:34:15;;;;;;;1.92;1.92;;;24.00;66.80;;;;;;5068958;28;20709;-71
2021/07/04 08:36:41;;;;;;;1.63;1.63;;;24.10;66.00;;;;;;5066124;28;20261;-72
2021/07/04 08:39:08;;;;;;;1.90;1.80;;;24.10;65.50;;;;;;5065675;28;20742;-71
2021/07/04 08:41:34;;;;;;;1.80;1.80;;;24.10;65.80;;;;;;5081749;28;20248;-71
2021/07/04 08:44:04;;;;;;;2.00;1.98;;;24.20;64.90;;;;;;5066039;28;20713;-71
2021/07/04 08:46:30;;;;;;;1.95;1.85;;;24.20;64.10;;;;;;5066232;28;20287;-70
2021/07/04 08:48:56;;;;;;;1.98;1.88;;;24.10;63.90;;;;;;5065968;28;20591;-70
2021/07/04 08:51:22;;;;;;;1.77;1.77;;;24.10;63.90;;;;;;5065491;28;20211;-71
2021/07/04 08:53:47;;;;;;;2.20;2.00;;;24.20;64.40;;;;;;5064801;28;20183;-70
2021/07/04 08:56:13;;;;;;;1.58;1.48;;;24.30;65.20;;;;;;5059414;28;20184;-69
2021/07/04 08:58:39;;;;;;;1.75;1.67;;;24.40;63.90;;;;;;5066032;28;20183;-70
2021/07/04 09:01:20;;;;;;;1.77;1.63;;;24.50;64.10;;;;;;5066852;28;20287;-70
2021/07/04 09:03:49;;;;;;;1.60;1.60;;;24.60;63.70;;;;;;5052845;28;20188;-70
2021/07/04 09:06:54;;;;;;;2.08;1.98;;;24.60;63.60;;;;;;5060461;28;20205;-70
2021/07/04 09:09:25;;;;;;;1.48;1.48;;;24.50;63.00;;;;;;5007519;28;20307;-70
2021/07/04 09:12:08;;;;;;;1.63;1.63;;;24.40;62.80;;;;;;5015899;28;20310;-70
2021/07/04 09:14:33;;;;;;;1.73;1.73;;;24.40;63.30;;;;;;5016308;28;20203;-69
2021/07/04 09:16:59;;;;;;;1.63;1.52;;;24.40;63.70;;;;;;5009544;28;20558;-71
2021/07/04 09:19:26;;;;;;;1.20;1.20;;;24.40;63.40;;;;;;5022783;28;20249;-69
2021/07/04 09:21:56;;;;;;;1.40;1.30;;;24.40;61.90;;;;;;5009317;28;20188;-69
2021/07/04 09:24:27;;;;;;;1.42;1.30;;;24.30;62.20;;;;;;5013803;28;20704;-69
2021/07/04 09:26:53;;;;;;;1.58;1.23;;;24.40;62.50;;;;;;5009360;28;20283;-69
2021/07/04 09:29:41;;;;;;;1.52;1.42;;;24.40;60.10;;;;;;5014257;28;20272;-69
2021/07/04 09:32:14;;;;;;;1.15;1.02;;;24.40;61.40;;;;;;5022362;28;20227;-69
2021/07/04 09:34:41;;;;;;;0.90;0.90;;;24.40;61.90;;;;;;5019618;28;20188;-68
2021/07/04 09:37:10;;;;;;;0.95;0.90;;;24.50;62.30;;;;;;5013153;28;20211;-73
2021/07/04 09:39:36;;;;;;;1.00;1.00;;;24.70;61.50;;;;;;5021146;28;20192;-71
2021/07/04 09:42:10;;;;;;;1.20;1.20;;;24.90;61.20;;;;;;5020378;28;20640;-72
2021/07/04 09:44:37;;;;;;;1.60;1.08;;;24.90;60.10;;;;;;5034111;28;20191;-72
2021/07/04 09:47:19;;;;;;;2.00;1.33;;;25.00;59.30;;;;;;5067155;28;20183;-72
2021/07/04 09:49:47;;;;;;;1.70;1.60;;;25.00;59.70;;;;;;5063937;28;20251;-72
2021/07/04 09:52:16;;;;;;;1.13;1.13;;;25.20;60.40;;;;;;5069330;28;20206;-69
2021/07/04 09:54:57;;;;;;;1.75;1.10;;;25.30;61.10;;;;;;5070372;28;20202;-70
2021/07/04 09:57:24;;;;;;;1.42;1.20;;;25.40;58.80;;;;;;5067174;28;20232;-71
2021/07/04 10:00:13;;;;;;;1.20;1.20;;;25.60;59.00;;;;;;5076585;28;20178;-69
2021/07/04 10:02:40;;;;;;;0.98;0.93;;;25.70;57.60;;;;;;5072300;28;20186;-69
2021/07/04 10:05:15;;;;;;;0.98;0.98;;;25.70;58.40;;;;;;5068048;28;20183;-69
2021/07/04 10:07:42;;;;;;;1.10;1.10;;;25.80;59.30;;;;;;5070095;28;20185;-69
2021/07/04 10:10:10;;;;;;;1.23;0.80;;;25.90;58.80;;;;;;5068046;28;20570;-70
2021/07/04 10:12:36;;;;;;;1.20;1.10;;;25.90;57.50;;;;;;5077401;28;20207;-70
2021/07/04 10:15:02;;;;;;;2.05;1.30;;;25.90;57.80;;;;;;5069589;28;20199;-69
2021/07/04 10:17:29;;;;;;;1.35;1.35;;;26.00;57.20;;;;;;5068786;28;20190;-70
2021/07/04 10:19:55;;;;;;;1.85;1.75;;;26.10;57.70;;;;;;5067920;28;20605;-71
2021/07/04 10:22:22;;;;;;;3.22;1.80;;;26.30;58.70;;;;;;5070527;28;20194;-71
2021/07/04 10:24:49;;;;;;;1.55;1.55;;;26.50;57.60;;;;;;5069083;28;20688;-72
2021/07/04 10:27:16;;;;;;;1.85;1.85;;;26.70;56.80;;;;;;5072335;28;20183;-70
2021/07/04 10:29:43;;;;;;;2.30;2.13;;;26.90;56.50;;;;;;5064923;28;20186;-71
2021/07/04 10:32:13;;;;;;;2.38;2.28;;;27.00;57.30;;;;;;5071415;28;20211;-70
2021/07/04 10:34:48;;;;;;;2.22;2.22;;;27.20;57.50;;;;;;5067756;28;20615;-70
2021/07/04 10:37:15;;;;;;;2.30;2.30;;;27.60;57.20;;;;;;5068947;28;20179;-72
2021/07/04 10:39:41;;;;;;;2.33;2.33;;;28.00;57.20;;;;;;5091870;28;20184;-70
2021/07/04 10:42:11;;;;;;;2.00;2.00;;;28.30;56.10;;;;;;5075092;28;20183;-73
2021/07/04 10:44:43;;;;;;;2.15;2.05;;;28.70;55.50;;;;;;5070287;28;20595;-71
2021/07/04 10:47:11;;;;;;;2.10;2.10;;;29.10;55.90;;;;;;5079810;28;20236;-72
2021/07/04 10:49:43;;;;;;;2.08;1.98;;;29.50;55.10;;;;;;5080991;28;20171;-72
2021/07/04 10:52:14;;;;;;;2.13;1.92;;;29.90;54.30;;;;;;5068813;28;20724;-72
2021/07/04 10:54:40;;;;;;;2.25;2.25;;;30.30;53.20;;;;;;5069270;28;20179;-72
2021/07/04 10:57:08;;;;;;;2.38;2.38;;;30.60;53.50;;;;;;5071279;28;20186;-71
2021/07/04 10:59:59;;;;;;;1.90;1.90;;;31.00;53.90;;;;;;5073450;28;20663;-71
2021/07/04 11:02:57;;;;;;;2.60;2.50;;;31.30;52.10;;;;;;5064529;28;20214;-73
2021/07/04 11:05:36;;;;;;;2.47;2.28;;;31.80;52.90;;;;;;5076166;28;20183;-70
2021/07/04 11:08:01;;;;;;;1.80;1.80;;;32.40;50.40;;;;;;5066529;28;20183;-71
2021/07/04 11:10:30;;;;;;;2.05;2.05;;;32.70;51.30;;;;;;5069019;28;20964;-70
2021/07/04 11:13:07;;;;;;;2.50;2.03;;;33.00;51.30;;;;;;5069692;28;20250;-70
2021/07/04 11:15:34;;;;;;;2.50;2.30;;;33.40;49.80;;;;;;5068912;28;20624;-70
2021/07/04 11:18:04;;;;;;;2.13;2.03;;;33.60;50.20;;;;;;5071295;28;20190;-70
2021/07/04 11:20:40;;;;;;;2.17;2.17;;;33.70;50.10;;;;;;5067833;28;20174;-70
2021/07/04 11:23:27;;;;;;;2.20;2.20;;;33.90;49.10;;;;;;5071393;28;20179;-71
2021/07/04 11:25:57;;;;;;;2.00;1.83;;;34.20;48.90;;;;;;5066986;28;20186;-70
2021/07/04 11:28:36;;;;;;;1.55;1.55;;;34.70;48.60;;;;;;5066697;28;20178;-70
2021/07/04 11:31:02;;;;;;;1.40;1.40;;;35.10;47.10;;;;;;5072469;28;20212;-70
2021/07/04 11:33:50;;;;;;;1.30;1.30;;;35.40;46.60;;;;;;5073827;28;20178;-71
2021/07/04 11:36:16;;;;;;;2.80;1.60;;;35.70;45.00;;;;;;5057273;28;20179;-71
2021/07/04 11:38:48;;;;;;;1.50;1.50;;;35.90;45.50;;;;;;5078434;28;20192;-71
2021/07/04 11:41:24;;;;;;;2.78;1.73;;;36.10;46.90;;;;;;5075966;28;20186;-70
2021/07/04 11:43:52;;;;;;;2.13;2.03;;;36.10;45.20;;;;;;5073252;28;20697;-71
2021/07/04 11:46:22;;;;;;;1.70;1.70;;;35.70;46.60;;;;;;5068611;28;20735;-71
2021/07/04 11:48:49;;;;;;;2.00;2.00;;;35.40;47.10;;;;;;5077258;28;20617;-70
2021/07/04 11:51:24;;;;;;;2.08;2.08;;;35.40;48.10;;;;;;5073816;28;20217;-70
2021/07/04 11:53:51;;;;;;;1.42;1.42;;;35.60;45.30;;;;;;5068427;28;20181;-71
2021/07/04 11:56:17;;;;;;;1.85;1.60;;;35.60;45.20;;;;;;5069965;28;20178;-71
2021/07/04 11:58:43;;;;;;;1.40;1.30;;;35.30;46.20;;;;;;5067266;28;20671;-71
2021/07/04 12:01:24;;;;;;;1.83;1.73;;;35.30;47.50;;;;;;5072233;28;20182;-72
2021/07/04 12:03:52;;;;;;;1.20;1.20;;;35.40;45.50;;;;;;5062642;28;20213;-71
2021/07/04 12:06:18;;;;;;;2.00;1.90;;;35.80;46.10;;;;;;5072919;28;20167;-71
2021/07/04 12:09:10;;;;;;;1.85;1.85;;;36.30;46.00;;;;;;5069317;28;20707;-71
2021/07/04 12:12:02;;;;;;;1.80;1.70;;;36.60;43.50;;;;;;5065289;28;20668;-72
2021/07/04 12:14:31;;;;;;;1.58;1.58;;;36.70;43.50;;;;;;5062266;28;20482;-71
2021/07/04 12:17:13;;;;;;;1.50;1.50;;;36.90;44.50;;;;;;5086991;28;21196;-72
2021/07/04 12:19:40;;;;;;;2.58;2.58;;;37.20;45.00;;;;;;5064456;28;20190;-72
2021/07/04 12:22:06;;;;;;;1.95;1.95;;;37.40;44.40;;;;;;5072167;28;20209;-70
2021/07/04 12:24:40;;;;;;;1.70;1.70;;;37.30;44.60;;;;;;5073974;28;20682;-71
2021/07/04 12:27:06;;;;;;;1.80;1.80;;;37.30;43.80;;;;;;5067000;28;20251;-71
2021/07/04 12:30:00;;;;;;;1.80;1.77;;;37.30;44.90;;;;;;5070509;28;20272;-71
2021/07/04 12:32:30;;;;;;;1.70;1.70;;;37.30;42.70;;;;;;5071900;28;20214;-71
2021/07/04 12:34:56;;;;;;;1.65;1.65;;;37.00;45.10;;;;;;5067958;28;20686;-71
2021/07/04 12:37:24;;;;;;;3.90;1.30;;;37.10;43.90;;;;;;5070203;28;20655;-71
2021/07/04 12:40:03;;;;;;;1.55;1.55;;;37.20;44.60;;;;;;5076088;28;20177;-71
2021/07/04 12:42:29;;;;;;;1.55;1.55;;;37.20;44.00;;;;;;5059529;28;20174;-70
2021/07/04 12:45:11;;;;;;;1.58;1.45;;;37.20;43.10;;;;;;5068223;28;20178;-70
2021/07/04 12:47:38;;;;;;;1.77;1.38;;;37.50;43.10;;;;;;5061177;28;20174;-70
2021/07/04 12:50:10;;;;;;;1.50;1.50;;;37.70;43.90;;;;;;5066959;28;20186;-71
2021/07/04 12:52:37;;;;;;;1.40;1.40;;;37.90;44.30;;;;;;5068440;28;20206;-71